sensor_id;sensor_type;location;lat;lon;timestamp;pressure;altitude;pressure_sealevel;temperature;humidity
20079;BME280;10199;48.850;8.924;2022-10-15T00:02:13;96501.97;;;12.95;97.51
20079;BME280;10199;48.850;8.924;2022-10-15T00:04:41;96518.28;;;12.98;97.21
20079;BME280;10199;48.850;8.924;2022-10-15T00:07:09;96497.41;;;13.02;97.24
20079;BME280;10199;48.850;8.924;2022-10-15T00:09:36;96495.41;;;12.97;97.36
20079;BME280;10199;48.850;8.924;2022-10-15T00:12:04;96453.09;;;12.72;97.22
20079;BME280;10199;48.850;8.924;2022-10-15T00:14:33;96493.28;;;13.06;97.75
20079;BME280;10199;48.850;8.924;2022-10-15T00:17:01;96496.28;;;13.10;97.67
20079;BME280;10199;48.850;8.924;2022-10-15T00:19:29;96494.09;;;13.06;97.71
20079;BME280;10199;48.850;8.924;2022-10-15T00:21:57;96500.66;;;13.04;97.58
20079;BME280;10199;48.850;8.924;2022-10-15T00:24:24;96487.97;;;13.06;97.67
20079;BME280;10199;48.850;8.924;2022-10-15T00:26:52;96496.53;;;13.08;97.26
20079;BME280;10199;48.850;8.924;2022-10-15T00:29:20;96494.44;;;13.10;97.64
20079;BME280;10199;48.850;8.924;2022-10-15T00:31:53;96504.25;;;13.10;97.89
20079;BME280;10199;48.850;8.924;2022-10-15T00:34:21;96495.03;;;13.12;97.96
20079;BME280;10199;48.850;8.924;2022-10-15T00:36:49;96498.03;;;13.16;97.98
20079;BME280;10199;48.850;8.924;2022-10-15T00:39:17;96497.03;;;13.17;97.69
20079;BME280;10199;48.850;8.924;2022-10-15T00:41:45;96507.44;;;13.18;97.95
20079;BME280;10199;48.850;8.924;2022-10-15T00:44:52;96490.69;;;13.18;97.81
20079;BME280;10199;48.850;8.924;2022-10-15T00:47:28;96496.81;;;13.18;97.91
20079;BME280;10199;48.850;8.924;2022-10-15T00:50:02;96494.28;;;13.23;97.84
20079;BME280;10199;48.850;8.924;2022-10-15T00:52:35;96490.25;;;13.21;98.00
20079;BME280;10199;48.850;8.924;2022-10-15T00:55:07;96486.09;;;13.25;97.95
20079;BME280;10199;48.850;8.924;2022-10-15T00:57:36;96489.78;;;13.24;97.56
20079;BME280;10199;48.850;8.924;2022-10-15T01:00:07;96490.97;;;13.28;97.81
20079;BME280;10199;48.850;8.924;2022-10-15T01:02:39;96483.00;;;13.28;97.67
20079;BME280;10199;48.850;8.924;2022-10-15T01:05:07;96481.72;;;13.30;97.84
20079;BME280;10199;48.850;8.924;2022-10-15T01:07:37;96474.78;;;13.29;97.71
20079;BME280;10199;48.850;8.924;2022-10-15T01:10:06;96479.06;;;13.30;97.80
20079;BME280;10199;48.850;8.924;2022-10-15T01:12:51;96482.06;;;13.34;97.88
20079;BME280;10199;48.850;8.924;2022-10-15T01:15:25;96462.88;;;13.20;97.75
20079;BME280;10199;48.850;8.924;2022-10-15T01:17:58;96471.69;;;13.32;97.78
20079;BME280;10199;48.850;8.924;2022-10-15T01:26:59;96476.53;;;13.35;98.07
20079;BME280;10199;48.850;8.924;2022-10-15T01:29:51;96507.59;;;13.35;98.47
20079;BME280;10199;48.850;8.924;2022-10-15T01:32:27;96487.16;;;13.35;98.05
20079;BME280;10199;48.850;8.924;2022-10-15T01:35:01;96489.94;;;13.41;98.47
20079;BME280;10199;48.850;8.924;2022-10-15T01:37:36;96466.72;;;13.36;98.52
20079;BME280;10199;48.850;8.924;2022-10-15T01:40:08;96461.31;;;13.43;98.30
20079;BME280;10199;48.850;8.924;2022-10-15T01:42:45;96484.63;;;13.41;98.37
20079;BME280;10199;48.850;8.924;2022-10-15T01:45:19;96457.63;;;13.44;98.09
20079;BME280;10199;48.850;8.924;2022-10-15T01:48:12;96458.19;;;13.46;98.44
20079;BME280;10199;48.850;8.924;2022-10-15T01:50:44;96454.16;;;13.43;98.37
20079;BME280;10199;48.850;8.924;2022-10-15T01:53:14;96453.59;;;13.53;98.37
20079;BME280;10199;48.850;8.924;2022-10-15T01:55:44;96451.50;;;13.55;98.76
20079;BME280;10199;48.850;8.924;2022-10-15T01:58:16;96448.38;;;13.58;98.45
20079;BME280;10199;48.850;8.924;2022-10-15T02:00:46;96453.69;;;13.58;98.39
20079;BME280;10199;48.850;8.924;2022-10-15T02:03:16;96450.13;;;13.52;98.42
20079;BME280;10199;48.850;8.924;2022-10-15T02:05:49;96459.13;;;13.63;98.55
20079;BME280;10199;48.850;8.924;2022-10-15T02:08:27;96450.69;;;13.66;98.17
20079;BME280;10199;48.850;8.924;2022-10-15T02:11:00;96460.88;;;13.69;98.50
20079;BME280;10199;48.850;8.924;2022-10-15T02:13:38;96462.50;;;13.70;98.28
20079;BME280;10199;48.850;8.924;2022-10-15T02:16:11;96459.59;;;13.71;98.42
20079;BME280;10199;48.850;8.924;2022-10-15T02:18:46;96486.28;;;13.65;98.09
20079;BME280;10199;48.850;8.924;2022-10-15T02:21:21;96465.72;;;13.72;98.47
20079;BME280;10199;48.850;8.924;2022-10-15T02:23:56;96464.47;;;13.75;98.24
20079;BME280;10199;48.850;8.924;2022-10-15T02:26:28;96469.53;;;13.76;98.26
20079;BME280;10199;48.850;8.924;2022-10-15T02:28:58;96432.91;;;13.55;98.28
20079;BME280;10199;48.850;8.924;2022-10-15T02:31:29;96466.06;;;13.76;98.09
20079;BME280;10199;48.850;8.924;2022-10-15T02:34:04;96504.09;;;13.76;97.93
20079;BME280;10199;48.850;8.924;2022-10-15T02:36:38;96475.09;;;13.75;98.28
20079;BME280;10199;48.850;8.924;2022-10-15T02:39:09;96477.50;;;13.76;98.27
20079;BME280;10199;48.850;8.924;2022-10-15T02:41:39;96477.97;;;13.73;98.61
20079;BME280;10199;48.850;8.924;2022-10-15T02:44:10;96483.28;;;13.73;98.63
20079;BME280;10199;48.850;8.924;2022-10-15T02:46:38;96474.28;;;13.74;98.79
20079;BME280;10199;48.850;8.924;2022-10-15T02:49:09;96474.38;;;13.67;98.53
20079;BME280;10199;48.850;8.924;2022-10-15T02:51:37;96465.84;;;13.77;98.74
20079;BME280;10199;48.850;8.924;2022-10-15T02:54:06;96468.50;;;13.77;98.65
20079;BME280;10199;48.850;8.924;2022-10-15T02:56:34;96474.16;;;13.81;98.76
20079;BME280;10199;48.850;8.924;2022-10-15T02:59:05;96475.78;;;13.82;98.65
20079;BME280;10199;48.850;8.924;2022-10-15T03:01:33;96483.53;;;13.83;98.62
20079;BME280;10199;48.850;8.924;2022-10-15T03:04:02;96477.75;;;13.86;98.71
20079;BME280;10199;48.850;8.924;2022-10-15T03:06:33;96525.59;;;13.86;98.39
20079;BME280;10199;48.850;8.924;2022-10-15T03:09:01;96479.16;;;13.89;98.47
20079;BME280;10199;48.850;8.924;2022-10-15T03:11:30;96484.25;;;13.90;98.20
20079;BME280;10199;48.850;8.924;2022-10-15T03:14:00;96480.56;;;13.91;98.21
20079;BME280;10199;48.850;8.924;2022-10-15T03:16:30;96474.50;;;13.84;98.27
20079;BME280;10199;48.850;8.924;2022-10-15T03:18:58;96510.38;;;13.93;98.19
20079;BME280;10199;48.850;8.924;2022-10-15T03:21:26;96481.13;;;13.93;98.22
20079;BME280;10199;48.850;8.924;2022-10-15T03:24:04;96484.03;;;13.92;98.22
20079;BME280;10199;48.850;8.924;2022-10-15T03:26:32;96492.34;;;13.95;98.27
20079;BME280;10199;48.850;8.924;2022-10-15T03:29:00;96488.06;;;13.94;98.26
20079;BME280;10199;48.850;8.924;2022-10-15T03:31:36;96484.38;;;13.95;98.55
20079;BME280;10199;48.850;8.924;2022-10-15T03:34:05;96490.25;;;13.97;98.46
20079;BME280;10199;48.850;8.924;2022-10-15T03:36:33;96519.63;;;14.02;98.24
20079;BME280;10199;48.850;8.924;2022-10-15T03:39:06;96505.41;;;14.09;98.13
20079;BME280;10199;48.850;8.924;2022-10-15T03:41:36;96501.34;;;14.06;98.23
20079;BME280;10199;48.850;8.924;2022-10-15T03:44:06;96494.88;;;14.14;97.93
20079;BME280;10199;48.850;8.924;2022-10-15T03:46:39;96506.69;;;14.18;97.73
20079;BME280;10199;48.850;8.924;2022-10-15T03:49:07;96509.44;;;14.23;97.54
20079;BME280;10199;48.850;8.924;2022-10-15T03:51:34;96533.63;;;14.21;97.53
20079;BME280;10199;48.850;8.924;2022-10-15T03:54:10;96509.44;;;14.23;97.35
20079;BME280;10199;48.850;8.924;2022-10-15T03:56:45;96514.66;;;14.29;96.84
20079;BME280;10199;48.850;8.924;2022-10-15T03:59:28;96511.75;;;14.31;96.70
20079;BME280;10199;48.850;8.924;2022-10-15T04:01:59;96513.38;;;14.32;95.73
20079;BME280;10199;48.850;8.924;2022-10-15T04:04:28;96511.28;;;14.34;95.41
20079;BME280;10199;48.850;8.924;2022-10-15T04:06:57;96513.38;;;14.32;95.52
20079;BME280;10199;48.850;8.924;2022-10-15T04:09:27;96514.19;;;14.21;95.90
20079;BME280;10199;48.850;8.924;2022-10-15T04:12:15;96507.72;;;14.28;95.01
20079;BME280;10199;48.850;8.924;2022-10-15T04:14:44;96512.09;;;14.23;95.60
20079;BME280;10199;48.850;8.924;2022-10-15T04:17:12;96513.03;;;14.17;95.77
20079;BME280;10199;48.850;8.924;2022-10-15T04:19:40;96508.28;;;14.19;95.74
20079;BME280;10199;48.850;8.924;2022-10-15T04:22:08;96521.00;;;14.17;95.91
20079;BME280;10199;48.850;8.924;2022-10-15T04:24:43;96543.69;;;14.08;96.30
20079;BME280;10199;48.850;8.924;2022-10-15T04:27:16;96523.66;;;14.17;96.11
20079;BME280;10199;48.850;8.924;2022-10-15T04:29:45;96534.88;;;14.19;95.92
20079;BME280;10199;48.850;8.924;2022-10-15T04:32:14;96530.72;;;14.23;95.67
20079;BME280;10199;48.850;8.924;2022-10-15T04:34:43;96522.16;;;14.21;95.80
20079;BME280;10199;48.850;8.924;2022-10-15T04:37:14;96563.91;;;14.20;95.53
20079;BME280;10199;48.850;8.924;2022-10-15T04:39:43;96533.50;;;14.28;95.17
20079;BME280;10199;48.850;8.924;2022-10-15T04:42:13;96530.72;;;14.23;95.40
20079;BME280;10199;48.850;8.924;2022-10-15T04:44:40;96522.88;;;14.16;95.28
20079;BME280;10199;48.850;8.924;2022-10-15T04:47:08;96539.84;;;14.27;95.30
20079;BME280;10199;48.850;8.924;2022-10-15T04:49:41;96540.09;;;14.25;95.57
20079;BME280;10199;48.850;8.924;2022-10-15T04:52:41;96559.53;;;14.26;95.24
20079;BME280;10199;48.850;8.924;2022-10-15T04:55:13;96539.41;;;14.30;95.08
20079;BME280;10199;48.850;8.924;2022-10-15T04:57:40;96541.38;;;14.23;94.75
20079;BME280;10199;48.850;8.924;2022-10-15T05:00:10;96542.06;;;14.30;95.17
20079;BME280;10199;48.850;8.924;2022-10-15T05:02:40;96537.19;;;14.27;94.97
20079;BME280;10199;48.850;8.924;2022-10-15T05:05:34;96569.13;;;14.27;95.06
20079;BME280;10199;48.850;8.924;2022-10-15T05:08:03;96551.66;;;14.31;95.28
20079;BME280;10199;48.850;8.924;2022-10-15T05:10:45;96553.50;;;14.30;95.02
20079;BME280;10199;48.850;8.924;2022-10-15T05:13:13;96600.13;;;14.33;95.15
20079;BME280;10199;48.850;8.924;2022-10-15T05:15:41;96564.16;;;14.30;94.91
20079;BME280;10199;48.850;8.924;2022-10-15T05:18:09;96580.91;;;14.31;95.10
20079;BME280;10199;48.850;8.924;2022-10-15T05:20:47;96571.56;;;14.28;95.29
20079;BME280;10199;48.850;8.924;2022-10-15T05:23:17;96596.75;;;14.26;95.26
20079;BME280;10199;48.850;8.924;2022-10-15T05:25:59;96564.72;;;14.21;95.56
20079;BME280;10199;48.850;8.924;2022-10-15T05:28:28;96571.78;;;14.15;95.67
20079;BME280;10199;48.850;8.924;2022-10-15T05:30:56;96571.53;;;14.17;95.81
20079;BME280;10199;48.850;8.924;2022-10-15T05:33:26;96576.88;;;14.17;95.60
20079;BME280;10199;48.850;8.924;2022-10-15T05:35:54;96568.78;;;14.12;95.41
20079;BME280;10199;48.850;8.924;2022-10-15T05:38:22;96600.81;;;14.17;95.50
20079;BME280;10199;48.850;8.924;2022-10-15T05:40:50;96580.09;;;14.07;95.88
20079;BME280;10199;48.850;8.924;2022-10-15T05:43:23;96585.78;;;14.11;95.55
20079;BME280;10199;48.850;8.924;2022-10-15T05:45:52;96581.81;;;14.01;95.70
20079;BME280;10199;48.850;8.924;2022-10-15T05:48:21;96584.25;;;14.03;95.57
20079;BME280;10199;48.850;8.924;2022-10-15T05:50:49;96586.56;;;14.11;95.22
20079;BME280;10199;48.850;8.924;2022-10-15T05:53:22;96589.47;;;14.10;95.43
20079;BME280;10199;48.850;8.924;2022-10-15T05:55:54;96605.88;;;14.07;95.15
20079;BME280;10199;48.850;8.924;2022-10-15T05:58:27;96600.91;;;14.10;95.23
20079;BME280;10199;48.850;8.924;2022-10-15T06:00:57;96598.47;;;14.09;94.88
20079;BME280;10199;48.850;8.924;2022-10-15T06:03:25;96605.19;;;13.99;94.88
20079;BME280;10199;48.850;8.924;2022-10-15T06:05:53;96626.00;;;14.02;95.02
20079;BME280;10199;48.850;8.924;2022-10-15T06:08:21;96598.94;;;14.06;95.22
20079;BME280;10199;48.850;8.924;2022-10-15T06:10:49;96612.47;;;14.04;95.16
20079;BME280;10199;48.850;8.924;2022-10-15T06:13:17;96610.16;;;14.08;95.31
20079;BME280;10199;48.850;8.924;2022-10-15T06:15:47;96618.25;;;14.01;95.37
20079;BME280;10199;48.850;8.924;2022-10-15T06:18:15;96623.91;;;14.05;94.90
20079;BME280;10199;48.850;8.924;2022-10-15T06:20:42;96625.88;;;14.09;94.69
20079;BME280;10199;48.850;8.924;2022-10-15T06:23:10;96623.81;;;14.11;94.61
20079;BME280;10199;48.850;8.924;2022-10-15T06:25:38;96626.94;;;14.08;94.67
20079;BME280;10199;48.850;8.924;2022-10-15T06:28:06;96636.75;;;14.08;94.99
20079;BME280;10199;48.850;8.924;2022-10-15T06:30:40;96626.69;;;13.98;94.94
20079;BME280;10199;48.850;8.924;2022-10-15T06:33:09;96629.22;;;13.93;95.02
20079;BME280;10199;48.850;8.924;2022-10-15T06:35:42;96659.53;;;14.15;94.98
20079;BME280;10199;48.850;8.924;2022-10-15T06:38:11;96654.47;;;14.14;94.56
20079;BME280;10199;48.850;8.924;2022-10-15T06:40:39;96647.88;;;14.16;94.00
20079;BME280;10199;48.850;8.924;2022-10-15T06:43:08;96651.47;;;14.22;93.66
20079;BME280;10199;48.850;8.924;2022-10-15T06:45:38;96665.22;;;14.19;93.98
20079;BME280;10199;48.850;8.924;2022-10-15T06:48:17;96690.31;;;14.23;93.41
20079;BME280;10199;48.850;8.924;2022-10-15T06:50:44;96671.13;;;14.21;93.74
20079;BME280;10199;48.850;8.924;2022-10-15T06:53:12;96669.75;;;14.30;93.89
20079;BME280;10199;48.850;8.924;2022-10-15T06:55:42;96674.38;;;14.23;93.84
20079;BME280;10199;48.850;8.924;2022-10-15T06:58:10;96681.66;;;14.27;93.98
20079;BME280;10199;48.850;8.924;2022-10-15T07:00:37;96687.91;;;14.21;93.84
20079;BME280;10199;48.850;8.924;2022-10-15T07:03:06;96693.91;;;14.17;93.39
20079;BME280;10199;48.850;8.924;2022-10-15T07:05:35;96691.13;;;14.23;93.01
20079;BME280;10199;48.850;8.924;2022-10-15T07:08:03;96680.25;;;14.13;92.86
20079;BME280;10199;48.850;8.924;2022-10-15T07:10:31;96694.28;;;14.32;93.04
20079;BME280;10199;48.850;8.924;2022-10-15T07:12:59;96680.03;;;14.26;93.28
20079;BME280;10199;48.850;8.924;2022-10-15T07:15:27;96703.66;;;14.34;92.82
20079;BME280;10199;48.850;8.924;2022-10-15T07:17:55;96711.41;;;14.36;92.07
20079;BME280;10199;48.850;8.924;2022-10-15T07:20:28;96695.13;;;14.44;92.58
20079;BME280;10199;48.850;8.924;2022-10-15T07:23:00;96699.78;;;14.49;92.48
20079;BME280;10199;48.850;8.924;2022-10-15T07:25:29;96711.56;;;14.53;91.96
20079;BME280;10199;48.850;8.924;2022-10-15T07:27:57;96730.69;;;14.61;91.62
20079;BME280;10199;48.850;8.924;2022-10-15T07:30:25;96715.75;;;14.60;91.62
20079;BME280;10199;48.850;8.924;2022-10-15T07:32:55;96717.25;;;14.56;91.03
20079;BME280;10199;48.850;8.924;2022-10-15T07:35:23;96659.31;;;14.17;90.42
20079;BME280;10199;48.850;8.924;2022-10-15T07:37:51;96717.03;;;14.70;90.80
20079;BME280;10199;48.850;8.924;2022-10-15T07:40:20;96723.50;;;14.62;91.28
20079;BME280;10199;48.850;8.924;2022-10-15T07:42:51;96721.06;;;14.60;91.71
20079;BME280;10199;48.850;8.924;2022-10-15T07:45:20;96726.50;;;14.54;91.80
20079;BME280;10199;48.850;8.924;2022-10-15T07:47:48;96723.28;;;14.63;91.55
20079;BME280;10199;48.850;8.924;2022-10-15T07:50:16;96725.38;;;14.73;91.74
20079;BME280;10199;48.850;8.924;2022-10-15T07:52:45;96726.84;;;14.46;91.33
20079;BME280;10199;48.850;8.924;2022-10-15T07:55:12;96757.97;;;14.45;91.30
20079;BME280;10199;48.850;8.924;2022-10-15T07:57:42;96735.47;;;14.41;91.09
20079;BME280;10199;48.850;8.924;2022-10-15T08:00:10;96743.03;;;14.44;91.67
20079;BME280;10199;48.850;8.924;2022-10-15T08:02:39;96747.38;;;14.39;91.09
20079;BME280;10199;48.850;8.924;2022-10-15T08:05:07;96742.00;;;14.45;91.21
20079;BME280;10199;48.850;8.924;2022-10-15T08:07:35;96746.31;;;14.58;91.53
20079;BME280;10199;48.850;8.924;2022-10-15T08:10:09;96741.78;;;14.58;92.12
20079;BME280;10199;48.850;8.924;2022-10-15T08:12:38;96735.66;;;14.58;91.25
20079;BME280;10199;48.850;8.924;2022-10-15T08:15:09;96743.41;;;14.59;91.64
20079;BME280;10199;48.850;8.924;2022-10-15T08:17:37;96745.16;;;14.65;91.87
20079;BME280;10199;48.850;8.924;2022-10-15T08:20:05;96749.91;;;14.63;91.37
20079;BME280;10199;48.850;8.924;2022-10-15T08:22:33;96745.28;;;14.71;91.25
20079;BME280;10199;48.850;8.924;2022-10-15T08:25:01;96776.88;;;14.67;90.92
20079;BME280;10199;48.850;8.924;2022-10-15T08:27:29;96741.78;;;14.58;91.19
20079;BME280;10199;48.850;8.924;2022-10-15T08:29:59;96748.97;;;14.70;91.46
20079;BME280;10199;48.850;8.924;2022-10-15T08:32:28;96749.31;;;14.73;91.46
20079;BME280;10199;48.850;8.924;2022-10-15T08:34:56;96773.09;;;14.75;91.57
20079;BME280;10199;48.850;8.924;2022-10-15T08:37:25;96749.78;;;14.70;91.42
20079;BME280;10199;48.850;8.924;2022-10-15T08:39:53;96762.56;;;14.80;91.98
20079;BME280;10199;48.850;8.924;2022-10-15T08:42:30;96784.56;;;14.75;92.12
20079;BME280;10199;48.850;8.924;2022-10-15T08:45:02;96759.44;;;14.83;92.78
20079;BME280;10199;48.850;8.924;2022-10-15T08:47:37;96781.72;;;14.70;91.94
20079;BME280;10199;48.850;8.924;2022-10-15T08:50:17;96775.59;;;14.70;92.24
20079;BME280;10199;48.850;8.924;2022-10-15T08:52:48;96764.88;;;14.76;92.24
20079;BME280;10199;48.850;8.924;2022-10-15T08:55:18;96757.00;;;14.81;92.09
20079;BME280;10199;48.850;8.924;2022-10-15T08:57:52;96769.50;;;14.81;92.15
20079;BME280;10199;48.850;8.924;2022-10-15T09:00:27;96771.81;;;14.77;92.51
20079;BME280;10199;48.850;8.924;2022-10-15T09:03:03;96772.16;;;14.81;92.66
20079;BME280;10199;48.850;8.924;2022-10-15T09:05:37;96760.09;;;14.66;92.47
20079;BME280;10199;48.850;8.924;2022-10-15T09:08:19;96766.50;;;14.77;92.57
20079;BME280;10199;48.850;8.924;2022-10-15T09:10:51;96766.38;;;14.84;92.30
20079;BME280;10199;48.850;8.924;2022-10-15T09:13:25;96789.78;;;15.05;92.82
20079;BME280;10199;48.850;8.924;2022-10-15T09:15:59;96776.94;;;15.02;92.75
20079;BME280;10199;48.850;8.924;2022-10-15T09:18:31;96773.13;;;15.10;92.39
20079;BME280;10199;48.850;8.924;2022-10-15T09:21:02;96772.41;;;15.26;93.00
20079;BME280;10199;48.850;8.924;2022-10-15T09:23:32;96762.47;;;15.21;93.21
20079;BME280;10199;48.850;8.924;2022-10-15T09:26:04;96775.31;;;15.24;92.91
20079;BME280;10199;48.850;8.924;2022-10-15T09:28:40;96771.47;;;15.32;92.99
20079;BME280;10199;48.850;8.924;2022-10-15T09:31:13;96759.66;;;15.40;92.67
20079;BME280;10199;48.850;8.924;2022-10-15T09:33:49;96780.44;;;15.61;92.16
20079;BME280;10199;48.850;8.924;2022-10-15T09:36:32;96763.94;;;15.52;91.68
20079;BME280;10199;48.850;8.924;2022-10-15T09:39:09;96798.28;;;15.60;91.39
20079;BME280;10199;48.850;8.924;2022-10-15T09:41:47;96802.19;;;15.58;90.63
20079;BME280;10199;48.850;8.924;2022-10-15T09:44:21;96795.59;;;15.72;92.13
20079;BME280;10199;48.850;8.924;2022-10-15T09:46:51;96795.34;;;15.85;91.81
20079;BME280;10199;48.850;8.924;2022-10-15T09:49:23;96791.16;;;16.18;92.02
20079;BME280;10199;48.850;8.924;2022-10-15T09:51:57;96781.22;;;16.70;90.69
20079;BME280;10199;48.850;8.924;2022-10-15T09:54:36;96775.94;;;17.26;89.50
20079;BME280;10199;48.850;8.924;2022-10-15T09:57:10;96779.91;;;17.23;88.76
20079;BME280;10199;48.850;8.924;2022-10-15T09:59:51;96790.63;;;16.90;88.01
20079;BME280;10199;48.850;8.924;2022-10-15T10:02:21;96788.22;;;17.60;88.32
20079;BME280;10199;48.850;8.924;2022-10-15T10:04:51;96785.53;;;17.60;86.52
20079;BME280;10199;48.850;8.924;2022-10-15T10:07:28;96793.53;;;17.77;87.61
20079;BME280;10199;48.850;8.924;2022-10-15T10:09:59;96788.28;;;17.65;86.06
20079;BME280;10199;48.850;8.924;2022-10-15T10:12:31;96782.84;;;17.60;87.75
20079;BME280;10199;48.850;8.924;2022-10-15T10:15:03;96790.75;;;17.50;85.35
20079;BME280;10199;48.850;8.924;2022-10-15T10:17:32;96798.75;;;17.33;83.92
20079;BME280;10199;48.850;8.924;2022-10-15T10:20:14;96789.06;;;17.44;84.39
20079;BME280;10199;48.850;8.924;2022-10-15T10:22:44;96805.50;;;17.36;85.00
20079;BME280;10199;48.850;8.924;2022-10-15T10:25:27;96802.59;;;18.20;83.06
20079;BME280;10199;48.850;8.924;2022-10-15T10:27:57;96798.19;;;17.87;82.50
20079;BME280;10199;48.850;8.924;2022-10-15T10:30:32;96799.38;;;18.18;81.60
20079;BME280;10199;48.850;8.924;2022-10-15T10:33:00;96803.22;;;18.49;79.60
20079;BME280;10199;48.850;8.924;2022-10-15T10:35:34;96798.06;;;17.98;78.89
20079;BME280;10199;48.850;8.924;2022-10-15T10:38:18;96804.63;;;17.86;80.02
20079;BME280;10199;48.850;8.924;2022-10-15T10:40:49;96801.56;;;17.60;79.48
20079;BME280;10199;48.850;8.924;2022-10-15T10:43:22;96811.78;;;17.63;79.61
20079;BME280;10199;48.850;8.924;2022-10-15T10:45:55;96817.81;;;17.54;79.23
20079;BME280;10199;48.850;8.924;2022-10-15T10:48:25;96805.03;;;17.39;80.17
20079;BME280;10199;48.850;8.924;2022-10-15T10:51:04;96824.31;;;17.41;78.59
20079;BME280;10199;48.850;8.924;2022-10-15T10:53:39;96804.81;;;17.62;79.35
20079;BME280;10199;48.850;8.924;2022-10-15T10:56:10;96813.56;;;17.58;79.03
20079;BME280;10199;48.850;8.924;2022-10-15T10:58:39;96818.28;;;17.34;79.15
20079;BME280;10199;48.850;8.924;2022-10-15T11:01:10;96810.94;;;17.41;77.83
20079;BME280;10199;48.850;8.924;2022-10-15T11:03:39;96816.75;;;17.21;77.44
20079;BME280;10199;48.850;8.924;2022-10-15T11:06:34;96810.19;;;17.29;78.11
20079;BME280;10199;48.850;8.924;2022-10-15T11:09:14;96809.56;;;17.22;77.02
20079;BME280;10199;48.850;8.924;2022-10-15T11:11:54;96808.25;;;17.07;77.20
20079;BME280;10199;48.850;8.924;2022-10-15T11:14:32;96812.16;;;17.16;77.46
20079;BME280;10199;48.850;8.924;2022-10-15T11:17:11;96811.97;;;17.23;77.87
20079;BME280;10199;48.850;8.924;2022-10-15T11:19:46;96805.25;;;17.20;77.50
20079;BME280;10199;48.850;8.924;2022-10-15T11:22:43;96823.19;;;17.37;77.25
20079;BME280;10199;48.850;8.924;2022-10-15T11:25:25;96790.75;;;17.16;77.32
20079;BME280;10199;48.850;8.924;2022-10-15T11:28:02;96794.78;;;17.52;76.46
20079;BME280;10199;48.850;8.924;2022-10-15T11:30:40;96791.72;;;17.82;76.02
20079;BME280;10199;48.850;8.924;2022-10-15T11:33:32;96787.72;;;17.63;75.61
20079;BME280;10199;48.850;8.924;2022-10-15T11:36:16;96778.97;;;17.90;73.88
20079;BME280;10199;48.850;8.924;2022-10-15T11:38:54;96775.06;;;18.73;75.06
20079;BME280;10199;48.850;8.924;2022-10-15T11:41:35;96772.81;;;17.89;73.77
20079;BME280;10199;48.850;8.924;2022-10-15T11:44:28;96787.41;;;17.60;74.76
20079;BME280;10199;48.850;8.924;2022-10-15T11:47:16;96796.16;;;17.55;75.67
20079;BME280;10199;48.850;8.924;2022-10-15T11:49:58;96772.84;;;17.34;75.95
20079;BME280;10199;48.850;8.924;2022-10-15T11:52:45;96772.44;;;17.42;76.51
20079;BME280;10199;48.850;8.924;2022-10-15T11:55:19;96769.03;;;17.30;76.20
20079;BME280;10199;48.850;8.924;2022-10-15T11:57:50;96774.66;;;17.11;76.26
20079;BME280;10199;48.850;8.924;2022-10-15T12:00:30;96774.81;;;17.05;77.66
20079;BME280;10199;48.850;8.924;2022-10-15T12:03:03;96767.28;;;17.02;77.11
20079;BME280;10199;48.850;8.924;2022-10-15T12:05:34;96775.56;;;17.00;78.07
20079;BME280;10199;48.850;8.924;2022-10-15T12:08:05;96773.13;;;16.82;77.15
20079;BME280;10199;48.850;8.924;2022-10-15T12:10:48;96762.59;;;16.75;76.39
20079;BME280;10199;48.850;8.924;2022-10-15T12:13:25;96773.28;;;16.92;78.07
20079;BME280;10199;48.850;8.924;2022-10-15T12:16:07;96765.50;;;16.74;77.66
20079;BME280;10199;48.850;8.924;2022-10-15T12:18:43;96777.25;;;16.73;78.24
20079;BME280;10199;48.850;8.924;2022-10-15T12:21:36;96771.66;;;16.74;79.92
20079;BME280;10199;48.850;8.924;2022-10-15T12:26:55;96773.34;;;16.35;82.04
20079;BME280;10199;48.850;8.924;2022-10-15T12:29:25;96763.75;;;16.22;81.03
20079;BME280;10199;48.850;8.924;2022-10-15T12:31:54;96765.47;;;16.29;81.29
20079;BME280;10199;48.850;8.924;2022-10-15T12:34:35;96756.81;;;16.21;82.29
20079;BME280;10199;48.850;8.924;2022-10-15T12:37:13;96750.00;;;16.14;80.88
20079;BME280;10199;48.850;8.924;2022-10-15T12:39:43;96746.28;;;16.15;80.64
20079;BME280;10199;48.850;8.924;2022-10-15T12:42:25;96743.63;;;16.15;81.46
20079;BME280;10199;48.850;8.924;2022-10-15T12:44:55;96747.31;;;16.14;82.26
20079;BME280;10199;48.850;8.924;2022-10-15T12:47:47;96738.19;;;16.10;81.28
20079;BME280;10199;48.850;8.924;2022-10-15T12:50:18;96739.00;;;16.10;80.75
20079;BME280;10199;48.850;8.924;2022-10-15T12:53:26;96739.50;;;16.24;81.60
20079;BME280;10199;48.850;8.924;2022-10-15T12:56:11;96743.03;;;16.13;81.04
20079;BME280;10199;48.850;8.924;2022-10-15T12:58:41;96744.03;;;16.23;80.86
20079;BME280;10199;48.850;8.924;2022-10-15T13:01:28;96761.81;;;16.18;80.05
20079;BME280;10199;48.850;8.924;2022-10-15T13:03:59;96747.41;;;16.19;79.89
20079;BME280;10199;48.850;8.924;2022-10-15T13:06:32;96752.44;;;16.15;80.80
20079;BME280;10199;48.850;8.924;2022-10-15T13:09:33;96775.53;;;16.10;81.23
20079;BME280;10199;48.850;8.924;2022-10-15T13:12:02;96737.00;;;16.17;81.16
20079;BME280;10199;48.850;8.924;2022-10-15T13:14:33;96764.00;;;16.21;80.53
20079;BME280;10199;48.850;8.924;2022-10-15T13:17:13;96748.47;;;16.18;80.98
20079;BME280;10199;48.850;8.924;2022-10-15T13:19:47;96756.09;;;15.98;81.62
20079;BME280;10199;48.850;8.924;2022-10-15T13:22:21;96767.03;;;15.84;82.20
20079;BME280;10199;48.850;8.924;2022-10-15T13:24:49;96754.94;;;15.93;82.88
20079;BME280;10199;48.850;8.924;2022-10-15T13:27:22;96755.28;;;15.97;83.37
20079;BME280;10199;48.850;8.924;2022-10-15T13:29:59;96757.78;;;15.75;83.66
20079;BME280;10199;48.850;8.924;2022-10-15T13:32:30;96761.13;;;15.82;83.56
20079;BME280;10199;48.850;8.924;2022-10-15T13:34:59;96740.59;;;15.83;83.81
20079;BME280;10199;48.850;8.924;2022-10-15T13:37:30;96753.72;;;15.84;84.20
20079;BME280;10199;48.850;8.924;2022-10-15T13:39:58;96782.09;;;15.90;83.96